BOV736 SLVR-SBGR
Flight info
| Callsign | BOV736 |
|---|---|
| Flight time | 2h 5m |
| Altitude | 41000 |
| Route | GAVOS UM411 ATERU UZ42 ZARES |
| Aircraft | A332/H-SDE3GHIJ2J3J5M1RVWXY/LB2D1 |
Departure
| Time | 2026-05-08 19:53 |
|---|---|
| Airport | Viru Viru International Airport (SLVR) |
Arrival
| Time | 2026-05-08 21:58 |
|---|---|
| Airport | São Paulo/Guarulhos–Governor André Franco Montoro International Airport (SBGR) |
| Time | Latitude | Longitude | Altitude | Speed | Heading |
|---|---|---|---|---|---|
| 2026-05-08 19:20 | -17.64864 | -63.13904 | 1235 ft | 0 kts | 238° |
| 2026-05-08 19:42 | -17.64863 | -63.13903 | 1235 ft | 2 kts | 238° |
| 2026-05-08 19:43 | -17.64850 | -63.13882 | 1253 ft | 4 kts | 238° |
| 2026-05-08 19:43 | -17.64838 | -63.13862 | 1252 ft | 4 kts | 241° |
| 2026-05-08 19:43 | -17.64832 | -63.13837 | 1252 ft | 4 kts | 288° |
| 2026-05-08 19:43 | -17.64846 | -63.13815 | 1252 ft | 4 kts | 324° |
| 2026-05-08 19:44 | -17.64854 | -63.13810 | 1252 ft | 0 kts | 328° |
| 2026-05-08 19:45 | -17.64850 | -63.13812 | 1252 ft | 2 kts | 328° |
| 2026-05-08 19:46 | -17.64831 | -63.13825 | 1252 ft | 5 kts | 328° |
| 2026-05-08 19:46 | -17.64797 | -63.13847 | 1247 ft | 7 kts | 327° |
| 2026-05-08 19:46 | -17.64687 | -63.13923 | 1241 ft | 12 kts | 326° |
| 2026-05-08 19:47 | -17.64613 | -63.13973 | 1240 ft | 14 kts | 327° |
| 2026-05-08 19:47 | -17.64531 | -63.14018 | 1250 ft | 13 kts | 357° |
| 2026-05-08 19:47 | -17.64464 | -63.13963 | 1240 ft | 13 kts | 56° |
| 2026-05-08 19:47 | -17.64409 | -63.13877 | 1247 ft | 14 kts | 56° |
| 2026-05-08 19:48 | -17.64354 | -63.13857 | 1249 ft | 8 kts | 346° |
| 2026-05-08 19:48 | -17.64301 | -63.13890 | 1249 ft | 10 kts | 327° |
| 2026-05-08 19:48 | -17.64234 | -63.13935 | 1251 ft | 14 kts | 327° |
| 2026-05-08 19:48 | -17.64140 | -63.13996 | 1238 ft | 18 kts | 328° |
| 2026-05-08 19:49 | -17.64029 | -63.14070 | 1249 ft | 12 kts | 327° |
| 2026-05-08 19:49 | -17.63983 | -63.14081 | 1237 ft | 9 kts | 4° |
| 2026-05-08 19:49 | -17.63933 | -63.14035 | 1234 ft | 11 kts | 59° |
| 2026-05-08 19:49 | -17.63882 | -63.13958 | 1232 ft | 13 kts | 34° |
| 2026-05-08 19:50 | -17.63818 | -63.13976 | 1232 ft | 11 kts | 327° |
| 2026-05-08 19:50 | -17.63723 | -63.14042 | 1233 ft | 22 kts | 327° |
| 2026-05-08 19:50 | -17.63569 | -63.14145 | 1251 ft | 31 kts | 327° |
| 2026-05-08 19:50 | -17.63369 | -63.14281 | 1244 ft | 37 kts | 327° |
| 2026-05-08 19:51 | -17.63214 | -63.14384 | 1233 ft | 15 kts | 328° |
| 2026-05-08 19:51 | -17.63178 | -63.14418 | 1232 ft | 5 kts | 294° |
| 2026-05-08 19:51 | -17.63191 | -63.14433 | 1233 ft | 1 kts | 196° |
| 2026-05-08 19:51 | -17.63197 | -63.14425 | 1233 ft | 1 kts | 132° |
| 2026-05-08 19:52 | -17.63214 | -63.14394 | 1233 ft | 9 kts | 122° |
| 2026-05-08 19:52 | -17.63277 | -63.14342 | 1234 ft | 15 kts | 147° |
| 2026-05-08 19:52 | -17.63404 | -63.14256 | 1249 ft | 38 kts | 147° |
| 2026-05-08 19:52 | -17.63864 | -63.13948 | 1232 ft | 119 kts | 147° |
| 2026-05-08 19:53 | -17.64748 | -63.13345 | 1481 ft | 174 kts | 147° |
| 2026-05-08 19:53 | -17.65829 | -63.12590 | 2355 ft | 192 kts | 145° |
| 2026-05-08 19:53 | -17.66910 | -63.11737 | 3061 ft | 203 kts | 133° |
| 2026-05-08 19:53 | -17.67706 | -63.10417 | 3370 ft | 233 kts | 121° |
| 2026-05-08 19:54 | -17.68540 | -63.08864 | 3834 ft | 254 kts | 119° |
| 2026-05-08 19:54 | -17.69436 | -63.07189 | 4408 ft | 272 kts | 118° |
| 2026-05-08 19:54 | -17.70401 | -63.05422 | 5130 ft | 285 kts | 118° |
| 2026-05-08 19:54 | -17.71427 | -63.03584 | 5839 ft | 299 kts | 118° |
| 2026-05-08 19:55 | -17.72504 | -63.01674 | 6564 ft | 310 kts | 118° |
| 2026-05-08 19:55 | -17.73613 | -62.99713 | 7339 ft | 316 kts | 119° |
| 2026-05-08 19:55 | -17.74757 | -62.97714 | 8173 ft | 321 kts | 120° |
| 2026-05-08 19:55 | -17.75924 | -62.95702 | 9023 ft | 324 kts | 120° |
| 2026-05-08 19:56 | -17.77082 | -62.93695 | 9888 ft | 328 kts | 120° |
| 2026-05-08 19:56 | -17.78281 | -62.91615 | 10440 ft | 343 kts | 119° |
| 2026-05-08 19:56 | -17.79539 | -62.89401 | 10841 ft | 363 kts | 119° |
| 2026-05-08 19:56 | -17.80872 | -62.87081 | 11332 ft | 378 kts | 120° |
| 2026-05-08 19:57 | -17.82235 | -62.84692 | 12046 ft | 384 kts | 120° |
| 2026-05-08 19:57 | -17.83608 | -62.82278 | 12773 ft | 388 kts | 120° |
| 2026-05-08 19:57 | -17.84998 | -62.79836 | 13505 ft | 390 kts | 120° |
| 2026-05-08 19:57 | -17.86396 | -62.77383 | 14184 ft | 392 kts | 120° |
| 2026-05-08 19:58 | -17.87576 | -62.74838 | 14796 ft | 395 kts | 109° |
| 2026-05-08 19:58 | -17.88250 | -62.72047 | 15404 ft | 397 kts | 99° |
| 2026-05-08 19:58 | -17.88687 | -62.69177 | 16034 ft | 399 kts | 97° |
| 2026-05-08 19:58 | -17.89064 | -62.66279 | 16648 ft | 402 kts | 97° |
| 2026-05-08 19:59 | -17.89428 | -62.63355 | 17274 ft | 406 kts | 97° |
| 2026-05-08 19:59 | -17.89786 | -62.60405 | 17911 ft | 409 kts | 97° |
| 2026-05-08 19:59 | -17.90146 | -62.57433 | 18458 ft | 412 kts | 97° |
| 2026-05-08 19:59 | -17.90507 | -62.54431 | 18981 ft | 416 kts | 97° |
| 2026-05-08 20:00 | -17.90866 | -62.51409 | 19458 ft | 420 kts | 97° |
| 2026-05-08 20:00 | -17.91227 | -62.48374 | 19851 ft | 427 kts | 98° |
| 2026-05-08 20:00 | -17.91595 | -62.45267 | 20341 ft | 430 kts | 98° |
| 2026-05-08 20:00 | -17.91966 | -62.42145 | 20856 ft | 433 kts | 98° |
| 2026-05-08 20:01 | -17.92339 | -62.38994 | 21364 ft | 437 kts | 98° |
| 2026-05-08 20:01 | -17.92716 | -62.35813 | 21871 ft | 440 kts | 98° |
| 2026-05-08 20:01 | -17.93094 | -62.32618 | 22343 ft | 443 kts | 98° |
| 2026-05-08 20:01 | -17.93475 | -62.29392 | 22837 ft | 447 kts | 98° |
| 2026-05-08 20:02 | -17.93858 | -62.26144 | 23320 ft | 450 kts | 98° |
| 2026-05-08 20:02 | -17.94245 | -62.22866 | 23746 ft | 454 kts | 98° |
| 2026-05-08 20:02 | -17.94633 | -62.19568 | 24142 ft | 457 kts | 98° |
| 2026-05-08 20:02 | -17.95018 | -62.16289 | 24508 ft | 461 kts | 98° |
| 2026-05-08 20:03 | -17.95410 | -62.12938 | 24875 ft | 464 kts | 98° |
| 2026-05-08 20:03 | -17.95806 | -62.09560 | 25285 ft | 467 kts | 98° |
| 2026-05-08 20:03 | -17.96200 | -62.06182 | 25770 ft | 467 kts | 98° |
| 2026-05-08 20:03 | -17.96597 | -62.02779 | 26113 ft | 472 kts | 98° |
| 2026-05-08 20:04 | -17.96998 | -61.99345 | 26441 ft | 476 kts | 98° |
| 2026-05-08 20:04 | -17.97401 | -61.95878 | 26781 ft | 480 kts | 98° |
| 2026-05-08 20:04 | -17.97808 | -61.92382 | 27128 ft | 484 kts | 98° |
| 2026-05-08 20:04 | -17.98211 | -61.88905 | 27448 ft | 488 kts | 97° |
| 2026-05-08 20:05 | -17.98623 | -61.85351 | 27782 ft | 492 kts | 97° |
| 2026-05-08 20:05 | -17.99057 | -61.81779 | 28127 ft | 496 kts | 100° |
| 2026-05-08 20:05 | -17.99741 | -61.78218 | 28457 ft | 499 kts | 104° |
| 2026-05-08 20:05 | -18.00607 | -61.74680 | 28795 ft | 502 kts | 107° |
| 2026-05-08 20:06 | -18.01571 | -61.71146 | 29127 ft | 505 kts | 108° |
| 2026-05-08 20:06 | -18.02579 | -61.67598 | 29455 ft | 509 kts | 108° |
| 2026-05-08 20:06 | -18.03598 | -61.64026 | 29779 ft | 512 kts | 108° |
| 2026-05-08 20:06 | -18.04615 | -61.60427 | 30086 ft | 516 kts | 108° |
| 2026-05-08 20:07 | -18.05627 | -61.56794 | 30370 ft | 519 kts | 107° |
| 2026-05-08 20:07 | -18.06671 | -61.53212 | 30663 ft | 521 kts | 108° |
| 2026-05-08 20:07 | -18.07709 | -61.49558 | 30952 ft | 524 kts | 107° |
| 2026-05-08 20:07 | -18.08707 | -61.45851 | 31139 ft | 529 kts | 107° |
| 2026-05-08 20:08 | -18.09697 | -61.42113 | 31391 ft | 532 kts | 107° |
| 2026-05-08 20:08 | -18.10707 | -61.38369 | 31762 ft | 532 kts | 107° |
| 2026-05-08 20:08 | -18.11733 | -61.34629 | 32124 ft | 533 kts | 107° |
| 2026-05-08 20:08 | -18.12769 | -61.30897 | 32598 ft | 531 kts | 107° |
| 2026-05-08 20:09 | -18.13807 | -61.27178 | 33059 ft | 530 kts | 107° |
| 2026-05-08 20:09 | -18.14834 | -61.23511 | 33406 ft | 531 kts | 107° |
| 2026-05-08 20:09 | -18.15877 | -61.19790 | 33800 ft | 531 kts | 107° |
| 2026-05-08 20:09 | -18.17102 | -61.16142 | 34170 ft | 528 kts | 118° |
| 2026-05-08 20:10 | -18.19003 | -61.12871 | 34509 ft | 523 kts | 129° |
| 2026-05-08 20:10 | -18.21093 | -61.09740 | 34841 ft | 523 kts | 126° |
| 2026-05-08 20:10 | -18.23055 | -61.06520 | 35166 ft | 524 kts | 122° |
| 2026-05-08 20:10 | -18.24769 | -61.03131 | 35488 ft | 525 kts | 116° |
| 2026-05-08 20:11 | -18.26305 | -60.99654 | 35880 ft | 523 kts | 115° |
| 2026-05-08 20:11 | -18.27808 | -60.96185 | 36233 ft | 521 kts | 115° |
| 2026-05-08 20:11 | -18.29297 | -60.92765 | 36541 ft | 521 kts | 115° |
| 2026-05-08 20:11 | -18.30815 | -60.89302 | 36806 ft | 521 kts | 115° |
| 2026-05-08 20:12 | -18.32334 | -60.85844 | 37135 ft | 520 kts | 113° |
| 2026-05-08 20:12 | -18.33535 | -60.82267 | 37461 ft | 518 kts | 102° |
| 2026-05-08 20:12 | -18.34259 | -60.78566 | 37780 ft | 516 kts | 99° |
| 2026-05-08 20:12 | -18.35033 | -60.74885 | 38087 ft | 516 kts | 102° |
| 2026-05-08 20:13 | -18.35918 | -60.71220 | 38285 ft | 517 kts | 103° |
| 2026-05-08 20:13 | -18.36844 | -60.67562 | 38592 ft | 516 kts | 103° |
| 2026-05-08 20:13 | -18.37762 | -60.63964 | 38852 ft | 516 kts | 103° |
| 2026-05-08 20:13 | -18.38684 | -60.60312 | 39041 ft | 516 kts | 103° |
| 2026-05-08 20:14 | -18.39594 | -60.56658 | 39227 ft | 516 kts | 102° |
| 2026-05-08 20:14 | -18.40495 | -60.52996 | 39419 ft | 517 kts | 102° |
| 2026-05-08 20:14 | -18.41389 | -60.49331 | 39602 ft | 517 kts | 102° |
| 2026-05-08 20:14 | -18.42280 | -60.45660 | 39777 ft | 518 kts | 103° |
| 2026-05-08 20:15 | -18.43167 | -60.41994 | 40075 ft | 515 kts | 103° |
| 2026-05-08 20:15 | -18.44049 | -60.38347 | 40292 ft | 515 kts | 103° |
| 2026-05-08 20:15 | -18.44920 | -60.34737 | 40444 ft | 515 kts | 103° |
| 2026-05-08 20:15 | -18.45804 | -60.31079 | 40596 ft | 516 kts | 103° |
| 2026-05-08 20:16 | -18.46688 | -60.27412 | 40760 ft | 517 kts | 103° |
| 2026-05-08 20:16 | -18.47574 | -60.23739 | 40906 ft | 517 kts | 103° |
| 2026-05-08 20:16 | -18.49349 | -60.16372 | 40952 ft | 521 kts | 103° |
| 2026-05-08 20:17 | -18.51126 | -60.08986 | 40955 ft | 519 kts | 103° |
| 2026-05-08 20:17 | -18.52894 | -60.01621 | 40944 ft | 519 kts | 103° |
| 2026-05-08 20:18 | -18.54655 | -59.94272 | 40976 ft | 522 kts | 103° |
| 2026-05-08 20:18 | -18.56429 | -59.86853 | 40982 ft | 522 kts | 103° |
| 2026-05-08 20:19 | -18.58199 | -59.79438 | 40972 ft | 521 kts | 103° |
| 2026-05-08 20:19 | -18.59962 | -59.72041 | 40977 ft | 521 kts | 103° |
| 2026-05-08 20:20 | -18.61712 | -59.64684 | 40968 ft | 521 kts | 103° |
| 2026-05-08 20:20 | -18.63471 | -59.57276 | 40954 ft | 520 kts | 103° |
| 2026-05-08 20:21 | -18.65222 | -59.49887 | 40952 ft | 519 kts | 103° |
| 2026-05-08 20:21 | -18.66967 | -59.42509 | 40949 ft | 518 kts | 103° |
| 2026-05-08 20:22 | -18.68695 | -59.35192 | 40949 ft | 518 kts | 103° |
| 2026-05-08 20:22 | -18.70153 | -59.29008 | 40958 ft | 520 kts | 103° |
| 2026-05-08 20:23 | -18.72178 | -59.20399 | 40956 ft | 520 kts | 103° |
| 2026-05-08 20:23 | -18.73918 | -59.12986 | 40945 ft | 521 kts | 102° |
| 2026-05-08 20:24 | -18.75655 | -59.05573 | 40942 ft | 521 kts | 102° |
| 2026-05-08 20:24 | -18.77374 | -58.98223 | 40947 ft | 520 kts | 103° |
| 2026-05-08 20:25 | -18.79102 | -58.90821 | 40947 ft | 519 kts | 103° |
| 2026-05-08 20:25 | -18.80827 | -58.83420 | 40947 ft | 519 kts | 103° |
| 2026-05-08 20:26 | -18.82548 | -58.76023 | 40945 ft | 519 kts | 103° |
| 2026-05-08 20:26 | -18.84255 | -58.68669 | 40941 ft | 519 kts | 103° |
| 2026-05-08 20:27 | -18.86012 | -58.61274 | 40944 ft | 519 kts | 104° |
| 2026-05-08 20:27 | -18.87990 | -58.53923 | 40942 ft | 522 kts | 105° |
| 2026-05-08 20:28 | -18.90032 | -58.46562 | 40946 ft | 522 kts | 105° |
| 2026-05-08 20:28 | -18.92041 | -58.39249 | 40939 ft | 521 kts | 105° |
| 2026-05-08 20:29 | -18.94037 | -58.31896 | 40936 ft | 521 kts | 105° |
| 2026-05-08 20:29 | -18.96032 | -58.24548 | 40935 ft | 521 kts | 105° |
| 2026-05-08 20:30 | -18.98046 | -58.17182 | 40939 ft | 521 kts | 105° |
| 2026-05-08 20:30 | -19.00054 | -58.09837 | 40930 ft | 521 kts | 105° |
| 2026-05-08 20:31 | -19.02046 | -58.02537 | 40935 ft | 520 kts | 105° |
| 2026-05-08 20:31 | -19.04046 | -57.95185 | 40916 ft | 520 kts | 105° |
| 2026-05-08 20:32 | -19.06044 | -57.87830 | 40919 ft | 521 kts | 106° |
| 2026-05-08 20:32 | -19.08052 | -57.80467 | 40913 ft | 521 kts | 107° |
| 2026-05-08 20:33 | -19.10341 | -57.73246 | 40912 ft | 521 kts | 110° |
| 2026-05-08 20:33 | -19.12804 | -57.66037 | 40911 ft | 521 kts | 110° |
| 2026-05-08 20:34 | -19.15257 | -57.58819 | 40913 ft | 522 kts | 110° |
| 2026-05-08 20:35 | -19.18884 | -57.47955 | 40915 ft | 523 kts | 109° |
| 2026-05-08 20:35 | -19.21274 | -57.40744 | 40925 ft | 522 kts | 109° |
| 2026-05-08 20:36 | -19.23665 | -57.33520 | 40911 ft | 521 kts | 110° |
| 2026-05-08 20:36 | -19.26055 | -57.26295 | 40910 ft | 520 kts | 110° |
| 2026-05-08 20:37 | -19.28442 | -57.19068 | 40912 ft | 520 kts | 110° |
| 2026-05-08 20:37 | -19.30826 | -57.11841 | 40908 ft | 520 kts | 110° |
| 2026-05-08 20:38 | -19.33193 | -57.04654 | 40904 ft | 520 kts | 110° |
| 2026-05-08 20:38 | -19.35802 | -56.97540 | 40910 ft | 518 kts | 117° |
| 2026-05-08 20:39 | -19.39015 | -56.90719 | 40910 ft | 518 kts | 118° |
| 2026-05-08 20:39 | -19.42343 | -56.83952 | 40894 ft | 518 kts | 119° |
| 2026-05-08 20:40 | -19.45660 | -56.77239 | 40897 ft | 517 kts | 119° |
| 2026-05-08 20:40 | -19.48985 | -56.70478 | 40895 ft | 517 kts | 119° |
| 2026-05-08 20:41 | -19.52296 | -56.63717 | 40897 ft | 517 kts | 119° |
| 2026-05-08 20:41 | -19.55599 | -56.56960 | 40889 ft | 517 kts | 119° |
| 2026-05-08 20:42 | -19.58881 | -56.50237 | 40897 ft | 517 kts | 119° |
| 2026-05-08 20:42 | -19.62190 | -56.43453 | 40878 ft | 518 kts | 119° |
| 2026-05-08 20:43 | -19.65496 | -56.36666 | 40890 ft | 518 kts | 119° |
| 2026-05-08 20:43 | -19.68799 | -56.29878 | 40866 ft | 518 kts | 119° |
| 2026-05-08 20:44 | -19.72081 | -56.23126 | 40888 ft | 518 kts | 119° |
| 2026-05-08 20:44 | -19.75374 | -56.16342 | 40870 ft | 517 kts | 119° |
| 2026-05-08 20:45 | -19.78670 | -56.09545 | 40895 ft | 518 kts | 119° |
| 2026-05-08 20:45 | -19.81969 | -56.02734 | 40875 ft | 520 kts | 118° |
| 2026-05-08 20:46 | -19.85259 | -55.95933 | 40878 ft | 521 kts | 118° |
| 2026-05-08 20:46 | -19.88565 | -55.89089 | 40878 ft | 521 kts | 118° |
| 2026-05-08 20:47 | -19.91873 | -55.82232 | 40875 ft | 521 kts | 118° |
| 2026-05-08 20:47 | -19.95176 | -55.75379 | 40876 ft | 521 kts | 118° |
| 2026-05-08 20:48 | -19.98470 | -55.68536 | 40898 ft | 520 kts | 118° |
| 2026-05-08 20:48 | -20.01744 | -55.61728 | 40882 ft | 522 kts | 118° |
| 2026-05-08 20:49 | -20.05049 | -55.54861 | 40883 ft | 522 kts | 118° |
| 2026-05-08 20:49 | -20.08356 | -55.47983 | 40880 ft | 521 kts | 118° |
| 2026-05-08 20:50 | -20.11656 | -55.41116 | 40881 ft | 521 kts | 118° |
| 2026-05-08 20:50 | -20.14929 | -55.34293 | 40886 ft | 521 kts | 118° |
| 2026-05-08 20:51 | -20.18262 | -55.27458 | 40895 ft | 521 kts | 120° |
| 2026-05-08 20:51 | -20.21753 | -55.20679 | 40889 ft | 523 kts | 121° |
| 2026-05-08 20:52 | -20.25276 | -55.13904 | 40895 ft | 523 kts | 121° |
| 2026-05-08 20:52 | -20.28759 | -55.07163 | 40892 ft | 523 kts | 120° |
| 2026-05-08 20:53 | -20.32249 | -55.00373 | 40876 ft | 523 kts | 120° |
| 2026-05-08 20:53 | -20.35727 | -54.93590 | 40890 ft | 521 kts | 120° |
| 2026-05-08 20:54 | -20.39200 | -54.86808 | 40923 ft | 522 kts | 120° |
| 2026-05-08 20:54 | -20.42659 | -54.80048 | 40932 ft | 524 kts | 120° |
| 2026-05-08 20:55 | -20.46143 | -54.73230 | 40938 ft | 524 kts | 120° |
| 2026-05-08 20:55 | -20.49595 | -54.66382 | 40937 ft | 524 kts | 119° |
| 2026-05-08 20:56 | -20.52897 | -54.59453 | 40935 ft | 524 kts | 118° |
| 2026-05-08 20:56 | -20.56143 | -54.52542 | 40941 ft | 526 kts | 118° |
| 2026-05-08 20:57 | -20.59444 | -54.45539 | 40917 ft | 528 kts | 118° |
| 2026-05-08 20:57 | -20.62739 | -54.38538 | 40909 ft | 528 kts | 115° |
| 2026-05-08 20:58 | -20.65509 | -54.31291 | 40904 ft | 528 kts | 111° |
| 2026-05-08 20:58 | -20.68124 | -54.24022 | 40888 ft | 528 kts | 111° |
| 2026-05-08 20:59 | -20.70719 | -54.16692 | 40903 ft | 527 kts | 111° |
| 2026-05-08 20:59 | -20.73308 | -54.09383 | 40905 ft | 527 kts | 111° |
| 2026-05-08 21:00 | -20.75906 | -54.02061 | 40902 ft | 527 kts | 111° |
| 2026-05-08 21:00 | -20.78490 | -53.94774 | 40905 ft | 528 kts | 111° |
| 2026-05-08 21:01 | -20.81087 | -53.87438 | 40902 ft | 528 kts | 111° |
| 2026-05-08 21:01 | -20.83682 | -53.80097 | 40898 ft | 528 kts | 111° |
| 2026-05-08 21:02 | -20.86195 | -53.72974 | 40894 ft | 528 kts | 111° |
| 2026-05-08 21:02 | -20.88782 | -53.65634 | 40897 ft | 527 kts | 111° |
| 2026-05-08 21:03 | -20.91343 | -53.58355 | 40901 ft | 527 kts | 111° |
| 2026-05-08 21:03 | -20.93920 | -53.51019 | 40901 ft | 527 kts | 111° |
| 2026-05-08 21:04 | -20.96496 | -53.43674 | 40898 ft | 527 kts | 111° |
| 2026-05-08 21:04 | -20.99066 | -53.36334 | 40897 ft | 527 kts | 111° |
| 2026-05-08 21:05 | -21.01615 | -53.29044 | 40893 ft | 527 kts | 111° |
| 2026-05-08 21:05 | -21.04175 | -53.21710 | 40896 ft | 527 kts | 111° |
| 2026-05-08 21:06 | -21.06741 | -53.14349 | 40895 ft | 528 kts | 111° |
| 2026-05-08 21:06 | -21.09308 | -53.06973 | 40894 ft | 528 kts | 111° |
| 2026-05-08 21:07 | -21.11853 | -52.99644 | 40886 ft | 528 kts | 111° |
| 2026-05-08 21:07 | -21.14408 | -52.92276 | 40895 ft | 527 kts | 111° |
| 2026-05-08 21:08 | -21.16956 | -52.84915 | 40892 ft | 527 kts | 111° |
| 2026-05-08 21:08 | -21.19500 | -52.77556 | 40903 ft | 527 kts | 111° |
| 2026-05-08 21:09 | -21.22051 | -52.70163 | 40892 ft | 529 kts | 111° |
| 2026-05-08 21:09 | -21.24581 | -52.62821 | 40893 ft | 529 kts | 111° |
| 2026-05-08 21:10 | -21.27127 | -52.55420 | 40895 ft | 529 kts | 111° |
| 2026-05-08 21:10 | -21.29667 | -52.48024 | 40887 ft | 528 kts | 111° |
| 2026-05-08 21:11 | -21.32195 | -52.40650 | 40892 ft | 527 kts | 111° |
| 2026-05-08 21:11 | -21.34724 | -52.33266 | 40907 ft | 527 kts | 111° |
| 2026-05-08 21:12 | -21.37237 | -52.25915 | 40891 ft | 529 kts | 111° |
| 2026-05-08 21:12 | -21.39769 | -52.18494 | 40893 ft | 529 kts | 111° |
| 2026-05-08 21:13 | -21.42295 | -52.11079 | 40890 ft | 529 kts | 111° |
| 2026-05-08 21:13 | -21.44801 | -52.03710 | 40878 ft | 529 kts | 110° |
| 2026-05-08 21:14 | -21.47310 | -51.96321 | 40891 ft | 527 kts | 110° |
| 2026-05-08 21:14 | -21.49815 | -51.88933 | 40895 ft | 527 kts | 110° |
| 2026-05-08 21:15 | -21.52324 | -51.81521 | 40894 ft | 529 kts | 110° |
| 2026-05-08 21:15 | -21.54832 | -51.74096 | 40895 ft | 529 kts | 110° |
| 2026-05-08 21:16 | -21.57317 | -51.66732 | 40896 ft | 528 kts | 110° |
| 2026-05-08 21:16 | -21.59817 | -51.59309 | 40892 ft | 528 kts | 110° |
| 2026-05-08 21:17 | -21.62311 | -51.51888 | 40896 ft | 528 kts | 110° |
| 2026-05-08 21:17 | -21.64806 | -51.44455 | 40902 ft | 530 kts | 110° |
| 2026-05-08 21:18 | -21.67308 | -51.36988 | 40895 ft | 532 kts | 110° |
| 2026-05-08 21:18 | -21.69794 | -51.29558 | 40888 ft | 531 kts | 110° |
| 2026-05-08 21:19 | -21.72292 | -51.22078 | 40891 ft | 531 kts | 110° |
| 2026-05-08 21:19 | -21.74785 | -51.14600 | 40901 ft | 531 kts | 110° |
| 2026-05-08 21:20 | -21.77275 | -51.07119 | 40919 ft | 531 kts | 110° |
| 2026-05-08 21:20 | -21.79745 | -50.99685 | 40900 ft | 532 kts | 110° |
| 2026-05-08 21:21 | -21.82233 | -50.92181 | 40900 ft | 532 kts | 110° |
| 2026-05-08 21:21 | -21.84720 | -50.84672 | 40898 ft | 532 kts | 110° |
| 2026-05-08 21:22 | -21.87200 | -50.77168 | 40902 ft | 532 kts | 110° |
| 2026-05-08 21:22 | -21.89663 | -50.69705 | 40902 ft | 532 kts | 110° |
| 2026-05-08 21:23 | -21.92138 | -50.62191 | 40903 ft | 533 kts | 110° |
| 2026-05-08 21:23 | -21.94611 | -50.54669 | 40900 ft | 533 kts | 110° |
| 2026-05-08 21:24 | -21.97083 | -50.47138 | 40906 ft | 533 kts | 110° |
| 2026-05-08 21:24 | -21.99547 | -50.39620 | 40903 ft | 533 kts | 110° |
| 2026-05-08 21:25 | -22.01996 | -50.32133 | 40911 ft | 532 kts | 110° |
| 2026-05-08 21:25 | -22.04449 | -50.24622 | 40937 ft | 532 kts | 110° |
| 2026-05-08 21:26 | -22.06908 | -50.17077 | 40925 ft | 533 kts | 111° |
| 2026-05-08 21:26 | -22.09361 | -50.09540 | 40954 ft | 533 kts | 110° |
| 2026-05-08 21:27 | -22.11794 | -50.02051 | 40966 ft | 533 kts | 110° |
| 2026-05-08 21:27 | -22.14241 | -49.94501 | 40969 ft | 533 kts | 110° |
| 2026-05-08 21:28 | -22.16269 | -49.88237 | 40963 ft | 533 kts | 110° |
| 2026-05-08 21:28 | -22.19120 | -49.79416 | 40955 ft | 532 kts | 110° |
| 2026-05-08 21:29 | -22.21538 | -49.71917 | 40938 ft | 532 kts | 110° |
| 2026-05-08 21:29 | -22.23573 | -49.65598 | 40923 ft | 532 kts | 110° |
| 2026-05-08 21:30 | -22.26385 | -49.56848 | 40919 ft | 532 kts | 110° |
| 2026-05-08 21:30 | -22.28805 | -49.49306 | 40924 ft | 532 kts | 110° |
| 2026-05-08 21:31 | -22.30810 | -49.43045 | 40922 ft | 531 kts | 110° |
| 2026-05-08 21:31 | -22.33609 | -49.34290 | 40930 ft | 531 kts | 110° |
| 2026-05-08 21:32 | -22.35611 | -49.28018 | 40925 ft | 530 kts | 110° |
| 2026-05-08 21:32 | -22.38009 | -49.20491 | 40934 ft | 529 kts | 110° |
| 2026-05-08 21:33 | -22.40388 | -49.12971 | 40938 ft | 529 kts | 110° |
| 2026-05-08 21:33 | -22.42726 | -49.05424 | 40935 ft | 529 kts | 110° |
| 2026-05-08 21:34 | -22.45032 | -48.97937 | 40937 ft | 527 kts | 110° |
| 2026-05-08 21:34 | -22.47346 | -48.90426 | 40939 ft | 527 kts | 109° |
| 2026-05-08 21:35 | -22.49659 | -48.82912 | 40933 ft | 527 kts | 109° |
| 2026-05-08 21:35 | -22.51973 | -48.75387 | 40931 ft | 527 kts | 109° |
| 2026-05-08 21:36 | -22.54265 | -48.67920 | 40937 ft | 527 kts | 109° |
| 2026-05-08 21:36 | -22.56570 | -48.60395 | 40939 ft | 526 kts | 109° |
| 2026-05-08 21:37 | -22.58867 | -48.52884 | 40936 ft | 526 kts | 109° |
| 2026-05-08 21:37 | -22.61164 | -48.45369 | 40571 ft | 527 kts | 110° |
| 2026-05-08 21:37 | -22.62343 | -48.41599 | 39788 ft | 533 kts | 110° |
| 2026-05-08 21:38 | -22.63553 | -48.37786 | 38947 ft | 540 kts | 110° |
| 2026-05-08 21:38 | -22.64786 | -48.33923 | 38152 ft | 544 kts | 110° |
| 2026-05-08 21:38 | -22.66009 | -48.30094 | 37415 ft | 546 kts | 110° |
| 2026-05-08 21:38 | -22.67239 | -48.26232 | 36662 ft | 538 kts | 110° |
| 2026-05-08 21:39 | -22.68442 | -48.22442 | 35931 ft | 527 kts | 109° |
| 2026-05-08 21:39 | -22.69622 | -48.18720 | 35136 ft | 518 kts | 109° |
| 2026-05-08 21:39 | -22.70788 | -48.15029 | 34312 ft | 520 kts | 109° |
| 2026-05-08 21:39 | -22.71967 | -48.11298 | 33344 ft | 528 kts | 108° |
| 2026-05-08 21:40 | -22.73159 | -48.07518 | 32368 ft | 534 kts | 109° |
| 2026-05-08 21:40 | -22.74703 | -48.03845 | 31417 ft | 538 kts | 121° |
| 2026-05-08 21:40 | -22.76511 | -48.00359 | 30759 ft | 537 kts | 119° |
| 2026-05-08 21:41 | -22.80140 | -47.93320 | 29350 ft | 533 kts | 120° |
| 2026-05-08 21:41 | -22.81956 | -47.89829 | 28640 ft | 530 kts | 120° |
| 2026-05-08 21:41 | -22.83767 | -47.86356 | 27952 ft | 527 kts | 120° |
| 2026-05-08 21:41 | -22.85554 | -47.82930 | 27371 ft | 519 kts | 120° |
| 2026-05-08 21:42 | -22.87306 | -47.79571 | 26555 ft | 504 kts | 120° |
| 2026-05-08 21:42 | -22.89001 | -47.76322 | 25876 ft | 486 kts | 120° |
| 2026-05-08 21:42 | -22.90615 | -47.73224 | 25222 ft | 470 kts | 120° |
| 2026-05-08 21:42 | -22.92198 | -47.70187 | 24620 ft | 456 kts | 120° |
| 2026-05-08 21:43 | -22.93738 | -47.67227 | 23989 ft | 446 kts | 120° |
| 2026-05-08 21:43 | -22.95266 | -47.64291 | 23351 ft | 449 kts | 119° |
| 2026-05-08 21:43 | -22.96808 | -47.61339 | 22681 ft | 450 kts | 119° |
| 2026-05-08 21:43 | -22.98349 | -47.58385 | 22050 ft | 449 kts | 119° |
| 2026-05-08 21:44 | -22.99876 | -47.55437 | 21430 ft | 447 kts | 119° |
| 2026-05-08 21:44 | -23.01402 | -47.52499 | 20826 ft | 446 kts | 118° |
| 2026-05-08 21:44 | -23.02918 | -47.49574 | 20205 ft | 444 kts | 118° |
| 2026-05-08 21:44 | -23.04410 | -47.46694 | 19608 ft | 442 kts | 118° |
| 2026-05-08 21:45 | -23.05916 | -47.43788 | 18993 ft | 440 kts | 118° |
| 2026-05-08 21:45 | -23.07413 | -47.40897 | 18384 ft | 438 kts | 118° |
| 2026-05-08 21:45 | -23.08903 | -47.38018 | 17732 ft | 436 kts | 118° |
| 2026-05-08 21:45 | -23.10362 | -47.35204 | 17176 ft | 421 kts | 118° |
| 2026-05-08 21:46 | -23.11767 | -47.32492 | 16531 ft | 402 kts | 117° |
| 2026-05-08 21:46 | -23.13109 | -47.29901 | 15965 ft | 385 kts | 117° |
| 2026-05-08 21:46 | -23.14396 | -47.27409 | 15427 ft | 371 kts | 117° |
| 2026-05-08 21:46 | -23.15650 | -47.24978 | 14891 ft | 369 kts | 117° |
| 2026-05-08 21:47 | -23.16889 | -47.22570 | 14364 ft | 371 kts | 117° |
| 2026-05-08 21:47 | -23.18151 | -47.20121 | 13828 ft | 373 kts | 117° |
| 2026-05-08 21:47 | -23.19420 | -47.17657 | 13224 ft | 374 kts | 117° |
| 2026-05-08 21:47 | -23.20693 | -47.15188 | 12643 ft | 374 kts | 117° |
| 2026-05-08 21:48 | -23.21961 | -47.12727 | 12123 ft | 372 kts | 117° |
| 2026-05-08 21:48 | -23.23221 | -47.10281 | 11577 ft | 370 kts | 117° |
| 2026-05-08 21:48 | -23.24474 | -47.07845 | 11045 ft | 368 kts | 117° |
| 2026-05-08 21:48 | -23.25715 | -47.05433 | 10545 ft | 366 kts | 117° |
| 2026-05-08 21:49 | -23.26934 | -47.03066 | 10404 ft | 351 kts | 117° |
| 2026-05-08 21:49 | -23.28103 | -47.00796 | 10306 ft | 337 kts | 117° |
| 2026-05-08 21:49 | -23.29211 | -46.98641 | 10171 ft | 326 kts | 117° |
| 2026-05-08 21:49 | -23.30298 | -46.96521 | 9954 ft | 318 kts | 117° |
| 2026-05-08 21:50 | -23.31375 | -46.94418 | 9458 ft | 319 kts | 117° |
| 2026-05-08 21:50 | -23.32457 | -46.92308 | 9006 ft | 319 kts | 117° |
| 2026-05-08 21:50 | -23.33535 | -46.90202 | 8599 ft | 318 kts | 117° |
| 2026-05-08 21:50 | -23.34605 | -46.88111 | 8226 ft | 316 kts | 117° |
| 2026-05-08 21:51 | -23.35670 | -46.86032 | 7755 ft | 311 kts | 116° |
| 2026-05-08 21:51 | -23.36700 | -46.84015 | 7332 ft | 300 kts | 117° |
| 2026-05-08 21:51 | -23.37690 | -46.82086 | 6939 ft | 291 kts | 117° |
| 2026-05-08 21:51 | -23.38662 | -46.80185 | 6555 ft | 285 kts | 117° |
| 2026-05-08 21:52 | -23.39630 | -46.78300 | 6186 ft | 286 kts | 118° |
| 2026-05-08 21:52 | -23.40601 | -46.76399 | 5788 ft | 289 kts | 117° |
| 2026-05-08 21:52 | -23.41577 | -46.74496 | 5517 ft | 285 kts | 117° |
| 2026-05-08 21:52 | -23.42530 | -46.72631 | 5275 ft | 277 kts | 117° |
| 2026-05-08 21:53 | -23.43444 | -46.70840 | 5017 ft | 267 kts | 117° |
| 2026-05-08 21:53 | -23.44342 | -46.69083 | 4700 ft | 263 kts | 117° |
| 2026-05-08 21:53 | -23.45213 | -46.67380 | 4469 ft | 249 kts | 117° |
| 2026-05-08 21:53 | -23.46014 | -46.65808 | 4344 ft | 233 kts | 116° |
| 2026-05-08 21:54 | -23.46766 | -46.64333 | 4172 ft | 217 kts | 116° |
| 2026-05-08 21:54 | -23.47212 | -46.62803 | 4107 ft | 211 kts | 92° |
| 2026-05-08 21:54 | -23.47232 | -46.61255 | 4089 ft | 193 kts | 79° |
| 2026-05-08 21:54 | -23.46949 | -46.59940 | 4086 ft | 165 kts | 65° |
| 2026-05-08 21:55 | -23.46627 | -46.58819 | 4084 ft | 148 kts | 66° |
| 2026-05-08 21:55 | -23.46339 | -46.57753 | 4096 ft | 146 kts | 66° |
| 2026-05-08 21:55 | -23.46054 | -46.56690 | 3968 ft | 146 kts | 66° |
| 2026-05-08 21:56 | -23.45484 | -46.54590 | 3575 ft | 145 kts | 68° |
| 2026-05-08 21:56 | -23.45242 | -46.53522 | 3406 ft | 145 kts | 70° |
| 2026-05-08 21:56 | -23.44959 | -46.52484 | 3256 ft | 140 kts | 70° |
| 2026-05-08 21:56 | -23.44651 | -46.51473 | 3089 ft | 140 kts | 70° |
| 2026-05-08 21:57 | -23.44361 | -46.50466 | 2900 ft | 139 kts | 72° |
| 2026-05-08 21:57 | -23.44094 | -46.49468 | 2686 ft | 138 kts | 71° |
| 2026-05-08 21:57 | -23.43821 | -46.48485 | 2481 ft | 133 kts | 70° |
| 2026-05-08 21:57 | -23.43597 | -46.47662 | 2476 ft | 79 kts | 74° |
| 2026-05-08 21:58 | -23.43480 | -46.47219 | 2472 ft | 53 kts | 73° |
| 2026-05-08 21:58 | -23.43418 | -46.47024 | 2477 ft | 18 kts | 62° |
| 2026-05-08 21:58 | -23.43351 | -46.46916 | 2471 ft | 16 kts | 49° |
| 2026-05-08 21:58 | -23.43273 | -46.46833 | 2473 ft | 15 kts | 43° |
| 2026-05-08 21:59 | -23.43210 | -46.46768 | 2478 ft | 11 kts | 43° |
| 2026-05-08 21:59 | -23.43157 | -46.46719 | 2474 ft | 9 kts | 31° |
| 2026-05-08 21:59 | -23.43102 | -46.46713 | 2476 ft | 6 kts | 347° |
| 2026-05-08 21:59 | -23.43051 | -46.46729 | 2473 ft | 9 kts | 343° |
| 2026-05-08 22:00 | -23.42980 | -46.46753 | 2472 ft | 12 kts | 343° |
| 2026-05-08 22:00 | -23.42889 | -46.46782 | 2474 ft | 15 kts | 343° |
| 2026-05-08 22:00 | -23.42793 | -46.46817 | 2476 ft | 12 kts | 324° |
| 2026-05-08 22:00 | -23.42784 | -46.46903 | 2473 ft | 12 kts | 257° |
| 2026-05-08 22:01 | -23.42805 | -46.46983 | 2478 ft | 12 kts | 253° |
| 2026-05-08 22:01 | -23.42833 | -46.47085 | 2471 ft | 16 kts | 253° |
| 2026-05-08 22:01 | -23.42867 | -46.47210 | 2452 ft | 19 kts | 253° |
| 2026-05-08 22:01 | -23.42906 | -46.47358 | 2469 ft | 19 kts | 253° |
| 2026-05-08 22:02 | -23.42916 | -46.47453 | 2470 ft | 10 kts | 297° |
| 2026-05-08 22:02 | -23.42863 | -46.47491 | 2473 ft | 10 kts | 334° |
| 2026-05-08 22:02 | -23.42808 | -46.47507 | 2473 ft | 6 kts | 1° |
| 2026-05-08 22:02 | -23.42762 | -46.47510 | 2473 ft | 7 kts | 351° |
| 2026-05-08 22:03 | -23.42713 | -46.47524 | 2472 ft | 8 kts | 344° |
| 2026-05-08 22:03 | -23.42649 | -46.47544 | 2474 ft | 11 kts | 342° |
| 2026-05-08 22:03 | -23.42612 | -46.47557 | 2472 ft | 0 kts | 345° |
| 2026-05-08 22:03 | -23.42600 | -46.47560 | 2473 ft | 4 kts | 345° |
| 2026-05-08 22:04 | -23.42569 | -46.47563 | 2470 ft | 2 kts | 18° |
| 2026-05-08 22:04 | -23.42553 | -46.47542 | 2468 ft | 5 kts | 54° |
| 2026-05-08 22:04 | -23.42542 | -46.47512 | 2468 ft | 5 kts | 71° |
| 2026-05-08 22:04 | -23.42537 | -46.47494 | 2470 ft | 2 kts | 73° |
| 2026-05-08 22:05 | -23.42536 | -46.47491 | 2469 ft | 0 kts | 73° |